Nearby METAR Reports

 

KEQY - Monroe, North Carolina, USA
Distance from station: S 11mi, 18km
Updated: Fri, 10/31/2014 11:53am EDT
Clear
Clear
 Wind from varies
Wind: varies 5 mph , 7 km/h
Temperature: 57°F , 14°C
Dew Point: 43°F , 6°C
Humidity: 59%
Barometer: 29.92 inHg , 1013.2 hPa
Clouds: Clear
Visibility: 10 miles , 16 km
2014/10/31 15:53 KEQY 311553Z AUTO VRB04KT 10SM CLR 14/06 A2992 RMK AO2 SLP142 T01390061
KJQF - Concord Reg Arpt, North Carolina, USA
Distance from station: NNW 16mi, 25km
Updated: Fri, 10/31/2014 12:50pm EDT
Partly cloudy
Partly cloudy
 Wind from calm
Wind: Calm
Temperature: 57°F , 14°C
Dew Point: 43°F , 6°C
Humidity: 59%
Barometer: 29.94 inHg , 1013.9 hPa
Clouds: Partly cloudy
Visibility: 10 miles , 16 km
Cloud details: Partly cloudy 3100 ft
2014/10/31 16:50 KJQF 311650Z 00000KT 10SM SCT031 14/06 A2994
 
KCLT - Charlotte, North Carolina, USA
Distance from station: W 20mi, 33km
Updated: Fri, 10/31/2014 12:52pm EDT
Mostly cloudy
Mostly cloudy
 Wind from calm
Wind: Calm
Temperature: 57°F , 14°C
Dew Point: 41°F , 5°C
Humidity: 55%
Barometer: 29.91 inHg , 1012.9 hPa
Clouds: Mostly cloudy
Visibility: 10 miles , 16 km
Cloud details: Mostly cloudy 2800 ft
2014/10/31 16:52 KCLT 311652Z 00000KT 10SM BKN028 14/05 A2991 RMK AO2 SLP124 T01390050
KUZA - Rock Hill, South Carolina, USA
Distance from station: WSW 29mi, 47km
Updated: Fri, 10/31/2014 11:54am EDT
Partly cloudy
Partly cloudy
 Wind from N
Wind: N 6 mph , 9 km/h
Temperature: 57°F , 14°C
Dew Point: 45°F , 7°C
Humidity: 63%
Barometer: 29.93 inHg , 1013.5 hPa
Clouds: Partly cloudy
Visibility: 10 miles , 16 km
Cloud details: Partly cloudy 2700 ft
2014/10/31 15:54 KUZA 311554Z AUTO 01005KT 10SM SCT027 14/07 A2993 RMK AO2 SLP135 T01390067
 
KVUJ - Albemarle Stanly, North Carolina, USA
Distance from station: NE 30mi, 48km
Updated: Fri, 10/31/2014 12:35pm EDT
Mostly cloudy
Mostly cloudy
 Wind from E
Wind: E 6 mph , 9 km/h
Temperature: 59°F , 15°C
Dew Point: 43°F , 6°C
Humidity: 55%
Barometer: 29.94 inHg , 1013.9 hPa
Clouds: Mostly cloudy
Visibility: 10 miles , 16 km
Cloud details: Mostly cloudy 3600 ft
2014/10/31 16:35 KVUJ 311635Z AUTO 09005KT 10SM BKN036 15/06 A2994 RMK AO2 T01490060
KAFP - Wadesboro/Anson, North Carolina, USA
Distance from station: ESE 31mi, 50km
Updated: Fri, 10/31/2014 12:35pm EDT
Clear
Clear
 Wind from calm
Wind: Calm
Temperature: 61°F , 16°C
Dew Point: 41°F , 5°C
Humidity: 48%
Barometer: 29.90 inHg , 1012.5 hPa
Clouds: Clear
Visibility: 10 miles , 16 km
2014/10/31 16:35 KAFP 311635Z AUTO 00000KT 10SM CLR 16/05 A2990 RMK AO2 T01580054
 
KAKH - Gastonia, North Carolina, USA
Distance from station: W 31mi, 51km
Updated: Fri, 10/31/2014 12:23pm EDT
Mostly cloudy
Mostly cloudy
 Wind from N
Wind: N 5 mph , 7 km/h
Temperature: 57°F , 14°C
Dew Point: 43°F , 6°C
Humidity: 59%
Barometer: 29.92 inHg , 1013.2 hPa
Clouds: Mostly cloudy
Visibility: 10 miles , 16 km
Cloud details: Mostly cloudy 2400 ft
2014/10/31 16:23 KAKH 311623Z AUTO 01004KT 10SM BKN024 14/06 A2992 RMK AO2 T01390061
KRUQ - Salisbury Rowan, North Carolina, USA
Distance from station: N 33mi, 53km
Updated: Fri, 10/31/2014 12:35pm EDT
Overcast
Overcast
 Wind from calm
Wind: Calm
Temperature: 54°F , 12°C
Dew Point: 41°F , 5°C
Humidity: 63%
Barometer: 29.91 inHg , 1012.9 hPa
Clouds: Overcast
Visibility: 10 miles , 16 km
Cloud details: Overcast 2900 ft
2014/10/31 16:35 KRUQ 311635Z AUTO 00000KT 10SM OVC029 12/05 A2991 RMK AO2 T01240049
 
KLKR - Lancaster, South Carolina, USA
Distance from station: SSW 35mi, 57km
Updated: Fri, 10/31/2014 12:55pm EDT
Clear
Clear
 Wind from calm
Wind: Calm
Temperature: 59°F , 15°C
Dew Point: 46°F , 8°C
Humidity: 63%
Barometer: 29.89 inHg , 1012.2 hPa
Clouds: Clear
Visibility: 10 miles , 16 km
2014/10/31 16:55 KLKR 311655Z AUTO 00000KT 10SM CLR 15/08 A2989 RMK AO2
KIPJ - Lincolnton, North Carolina, USA
Distance from station: WNW 39mi, 62km
Updated: Fri, 10/31/2014 12:35pm EDT
Overcast
Overcast
 Wind from N
Wind: N 3 mph , 6 km/h
Temperature: 54°F , 12°C
Dew Point: 41°F , 5°C
Humidity: 63%
Barometer: 29.92 inHg , 1013.2 hPa
Clouds: Overcast
Visibility: 10 miles , 16 km
Cloud details: Overcast 2100 ft
2014/10/31 16:35 KIPJ 311635Z AUTO 35003KT 10SM OVC021 12/05 A2992 RMK AO2 T01210046
 
KDCM - Chester Catawba, South Carolina, USA
Distance from station: SW 44mi, 71km
Updated: Fri, 10/03/2014 7:35pm EDT
NOT Current
Partly cloudy
Partly cloudy
 Wind from calm
Wind: Calm
Temperature: 73°F , 23°C
Dew Point: 70°F , 21°C
Humidity: 89%
Barometer: 29.88 inHg , 1011.9 hPa
Clouds: Partly cloudy
Visibility: 10 miles , 16 km
Cloud details: Partly cloudy 1000 ft
Partly cloudy 1400 ft
2014/10/03 23:35 KDCM 032335Z AUTO 00000KT 10SM SCT010 SCT014 23/21 A2988 RMK AO2 LTG DSNT SE
KSVH - Statesville, North Carolina, USA
Distance from station: NNW 44mi, 71km
Updated: Fri, 10/31/2014 12:35pm EDT
Overcast
Overcast
 Wind from calm
Wind: Calm
Temperature: 52°F , 11°C
Dew Point: 39°F , 4°C
Humidity: 62%
Barometer: 29.92 inHg , 1013.2 hPa
Clouds: Overcast
Visibility: 10 miles , 16 km
Cloud details: Overcast 2400 ft
2014/10/31 16:35 KSVH 311635Z AUTO 00000KT 10SM OVC024 11/04 A2992 RMK AO2 T01050037
 
KEXX - Davidson Cty Ap, North Carolina, USA
Distance from station: NNE 45mi, 72km
Updated: Fri, 10/31/2014 12:35pm EDT
Overcast
Overcast
 Wind from NE
Wind: NE 3 mph , 6 km/h
Temperature: 55°F , 13°C
Dew Point: 39°F , 4°C
Humidity: 55%
Barometer: 29.91 inHg , 1012.9 hPa
Clouds: Overcast
Visibility: 10 miles , 16 km
Cloud details: Overcast 3100 ft
2014/10/31 16:35 KEXX 311635Z AUTO 04003KT 10SM OVC031 13/04 A2991 RMK AO2 T01250043
KCQW - Cheraw, South Carolina, USA
Distance from station: SE 49mi, 78km
Updated: Fri, 10/31/2014 12:55pm EDT
Clear
Clear
 Wind from ENE
Wind: ENE 3 mph , 6 km/h
Temperature: 63°F , 17°C
Dew Point: 43°F , 6°C
Humidity: 49%
Barometer: 29.88 inHg , 1011.9 hPa
Clouds: Clear
Visibility: 10 miles , 16 km
2014/10/31 16:55 KCQW 311655Z AUTO 07003KT 10SM CLR 17/06 A2988 RMK AO2